Friday, November 17, 2017, 2:34 PM EST
Back to Local

KGED, Georgetown Sussex Co Airport

Location: Georgetown, DE, United States Lat: 38.683
Local Time: 2:34 PM EST (19:34 GMT) Lon: -75.367
Time Zone: US/Eastern Elev: 52 ft

Show me the last for .
Show Decoded

2017-11-17 13:54 METAR KGED 171854Z AUTO 29007KT 250V310 10SM CLR 11/M02 A3013 RMK AO2 SLP203
                 T01111017 =
2017-11-17 12:54 METAR KGED 171754Z AUTO 31009G20KT 270V340 10SM CLR 11/M03 A3014 RMK AO2 SLP207
                 T01061033 10111 20056 56010 =
2017-11-17 11:54 METAR KGED 171654Z AUTO 35010G15KT 10SM CLR 10/M03 A3015 RMK AO2 SLP209
                 T01001033 =
2017-11-17 10:54 METAR KGED 171554Z AUTO 33008G15KT 290V010 10SM CLR 09/M02 A3017 RMK AO2 SLP215
                 T00941022 =
2017-11-17 09:54 METAR KGED 171454Z AUTO VRB06G16KT 10SM CLR 08/M02 A3017 RMK AO2 SLP217
                 T00831022 50009 =
2017-11-17 08:54 METAR KGED 171354Z AUTO 34008G16KT 10SM CLR 08/M01 A3018 RMK AO2 SLP219
                 T00781011 =
2017-11-17 07:54 METAR KGED 171254Z AUTO 33005KT 10SM CLR 07/M01 A3017 RMK AO2 SLP217 T00671006 =
2017-11-17 06:54 METAR KGED 171154Z AUTO VRB04KT 10SM CLR 06/M01 A3015 RMK AO2 SLP209 T00561006
                 10061 20044 53020 =
2017-11-17 05:54 METAR KGED 171054Z AUTO 30007KT 10SM CLR 06/M01 A3012 RMK AO2 SLP200 T00611006 =
2017-11-17 04:54 METAR KGED 170954Z AUTO 31007KT 10SM CLR 06/M01 A3011 RMK AO2 SLP196 T00611006 =
2017-11-17 03:54 METAR KGED 170854Z AUTO 29003KT 10SM CLR 05/M01 A3009 RMK AO2 SLP188 T00501006
                 50007 =
2017-11-17 02:54 METAR KGED 170754Z AUTO 25005KT 10SM CLR 06/M01 A3009 RMK AO2 SLP189 T00611006 =
2017-11-17 01:54 METAR KGED 170654Z AUTO 27005KT 10SM CLR 06/M01 A3008 RMK AO2 SLP186 T00611011 =
2017-11-17 00:54 METAR KGED 170554Z AUTO 29004KT 10SM CLR 06/M01 A3007 RMK AO2 SLP181 T00611006
                 10117 20061 53008 =
2017-11-16 23:54 METAR KGED 170454Z AUTO 27006KT 10SM CLR 07/M01 A3006 RMK AO2 SLP179 T00721011
                 401670072 =
2017-11-16 22:54 METAR KGED 170354Z AUTO 30007KT 10SM CLR 08/M01 A3005 RMK AO2 SLP175 T00781011 =
2017-11-16 21:54 METAR KGED 170254Z AUTO 31009G14KT 10SM CLR 08/M01 A3004 RMK AO2 SLP173
                 T00831006 51027 =
2017-11-16 20:54 METAR KGED 170154Z AUTO 30006G14KT 10SM CLR 09/01 A3002 RMK AO2 SLP166 T00940006
                 =
2017-11-16 19:54 METAR KGED 170054Z AUTO VRB05KT 10SM CLR 11/00 A2999 RMK AO2 SLP156 T01060000 =
2017-11-16 18:54 METAR KGED 162354Z AUTO 31007KT 280V340 10SM CLR 12/01 A2996 RMK AO2 SLP146
                 T01170006 10167 20117 53026 =
2017-11-16 17:54 METAR KGED 162254Z AUTO 33004KT 10SM CLR 13/02 A2994 RMK AO2 SLP140 T01280022 =
2017-11-16 16:54 METAR KGED 162154Z AUTO 26005KT 10SM CLR 14/03 A2990 RMK AO2 SLP124 T01440033 =
2017-11-16 15:54 METAR KGED 162054Z AUTO 26008G16KT 10SM SCT075 16/02 A2989 RMK AO2 SLP119
                 T01560022 53005 =
2017-11-16 14:54 METAR KGED 161954Z AUTO 27009G18KT 10SM CLR 16/03 A2987 RMK AO2 SLP113 T01610028
                 =

Support USWX by starting your Amazon purchase here.